createdAt,value
2022-12-07T00:04:51.200Z,5.50
2022-12-07T00:07:23.632Z,5.80
2022-12-07T00:09:54.820Z,5.70
2022-12-07T00:12:23.096Z,5.70
2022-12-07T00:14:51.381Z,6.00
2022-12-07T00:17:19.742Z,6.30
2022-12-07T00:19:48.078Z,4.30
2022-12-07T00:22:16.346Z,6.00
2022-12-07T00:24:44.645Z,6.60
2022-12-07T00:27:12.940Z,6.90
2022-12-07T00:29:41.239Z,7.30
2022-12-07T00:32:09.702Z,7.50
2022-12-07T00:34:38.147Z,6.90
2022-12-07T00:37:06.543Z,8.30
2022-12-07T00:39:34.791Z,8.30
2022-12-07T00:42:03.277Z,8.90
2022-12-07T00:44:31.571Z,8.00
2022-12-07T00:46:59.929Z,8.30
2022-12-07T00:49:28.197Z,8.20
2022-12-07T00:51:56.674Z,7.30
2022-12-07T00:55:04.180Z,8.40
2022-12-07T00:57:32.635Z,8.00
2022-12-07T01:00:02.011Z,7.40
2022-12-07T01:02:30.514Z,8.30
2022-12-07T01:04:58.882Z,8.50
2022-12-07T01:07:27.168Z,8.50
2022-12-07T01:09:55.460Z,8.00
2022-12-07T01:12:23.751Z,7.80
2022-12-07T01:14:52.057Z,8.80
2022-12-07T01:17:20.335Z,8.10
2022-12-07T01:19:48.693Z,7.70
2022-12-07T01:22:17.023Z,8.20
2022-12-07T01:24:45.440Z,8.20
2022-12-07T01:27:15.200Z,8.80
2022-12-07T01:29:43.574Z,8.50
2022-12-07T01:32:12.451Z,9.20
2022-12-07T01:34:40.881Z,9.30
2022-12-07T01:37:09.260Z,10.50
2022-12-07T01:39:37.553Z,9.30
2022-12-07T01:42:06.045Z,8.70
2022-12-07T01:44:34.433Z,8.80
2022-12-07T01:47:06.299Z,9.30
2022-12-07T01:49:36.996Z,9.40
2022-12-07T01:52:23.419Z,10.30
2022-12-07T01:54:58.453Z,11.50
2022-12-07T01:57:27.720Z,10.10
2022-12-07T01:59:57.993Z,12.20
2022-12-07T02:02:39.523Z,10.10
2022-12-07T02:05:08.564Z,10.90
2022-12-07T02:07:40.021Z,9.30
2022-12-07T02:10:17.499Z,9.50
2022-12-07T02:12:48.888Z,8.80
2022-12-07T02:15:17.893Z,9.00
2022-12-07T02:17:58.263Z,9.60
2022-12-07T02:20:34.632Z,9.10
2022-12-07T02:23:18.433Z,9.40
2022-12-07T02:26:30.866Z,10.20
2022-12-07T02:29:18.010Z,9.40
2022-12-07T02:32:08.723Z,8.30
2022-12-07T02:35:02.271Z,8.80
2022-12-07T02:37:44.411Z,6.10
2022-12-07T02:40:45.529Z,8.80
2022-12-07T02:43:24.704Z,9.50
2022-12-07T02:46:08.422Z,9.10
2022-12-07T02:48:39.988Z,8.40
2022-12-07T02:51:08.450Z,8.20
2022-12-07T02:54:02.849Z,8.10
2022-12-07T02:56:46.542Z,8.40
2022-12-07T02:59:41.809Z,8.50
2022-12-07T03:02:37.800Z,8.80
2022-12-07T03:05:41.770Z,8.00
2022-12-07T03:08:40.351Z,8.40
2022-12-07T03:11:20.428Z,7.50
2022-12-07T03:14:09.107Z,7.20
2022-12-07T03:16:47.596Z,8.30
2022-12-07T03:19:21.273Z,8.70
2022-12-07T03:22:04.188Z,7.80
2022-12-07T03:24:40.326Z,8.20
2022-12-07T03:27:13.188Z,7.30
2022-12-07T03:29:51.332Z,8.40
2022-12-07T03:32:31.411Z,7.80
2022-12-07T03:35:02.893Z,6.30
2022-12-07T03:37:39.404Z,7.40
2022-12-07T03:40:19.823Z,6.90
2022-12-07T03:42:48.809Z,6.60
2022-12-07T03:45:17.965Z,5.20
2022-12-07T03:48:05.198Z,5.00
2022-12-07T03:50:39.309Z,5.60
2022-12-07T03:53:34.813Z,5.80
2022-12-07T03:56:04.500Z,6.50
2022-12-07T03:58:34.754Z,6.20
2022-12-07T04:01:03.396Z,6.50
2022-12-07T04:03:31.806Z,6.50
2022-12-07T04:06:01.040Z,6.70
2022-12-07T04:08:29.474Z,6.50
2022-12-07T04:10:57.824Z,6.70
2022-12-07T04:13:26.474Z,5.90
2022-12-07T04:15:54.898Z,5.80
2022-12-07T04:18:23.281Z,5.40
2022-12-07T04:20:51.627Z,5.40
2022-12-07T04:23:19.967Z,4.80
2022-12-07T04:25:50.229Z,5.30
2022-12-07T04:28:18.561Z,5.40
2022-12-07T04:30:47.080Z,4.90
2022-12-07T04:33:15.433Z,5.20
2022-12-07T04:35:44.547Z,5.20
2022-12-07T04:38:12.954Z,4.30
2022-12-07T04:40:41.376Z,4.50
2022-12-07T04:43:09.682Z,4.60
2022-12-07T04:45:37.984Z,4.90
2022-12-07T04:48:06.677Z,5.50
2022-12-07T04:50:44.575Z,5.00
2022-12-07T04:53:14.696Z,6.40
2022-12-07T04:55:43.285Z,5.90
2022-12-07T04:58:12.137Z,5.30
2022-12-07T05:00:41.306Z,5.80
2022-12-07T05:03:09.720Z,5.80
2022-12-07T05:05:41.983Z,5.70
2022-12-07T05:08:10.508Z,5.90
2022-12-07T05:10:39.021Z,5.30
2022-12-07T05:13:07.358Z,5.40
2022-12-07T05:15:35.714Z,6.20
2022-12-07T05:18:04.942Z,6.60
2022-12-07T05:20:36.651Z,6.80
2022-12-07T05:23:09.722Z,6.40
2022-12-07T05:25:38.515Z,6.10
2022-12-07T05:28:07.544Z,6.50
2022-12-07T05:30:36.114Z,6.80
2022-12-07T05:33:04.979Z,7.50
2022-12-07T05:35:33.358Z,8.50
2022-12-07T05:38:01.709Z,7.30
2022-12-07T05:40:30.081Z,7.90
2022-12-07T05:43:04.005Z,7.90
2022-12-07T05:45:33.215Z,7.70
2022-12-07T05:48:01.610Z,7.80
2022-12-07T05:50:30.435Z,8.00
2022-12-07T05:52:58.815Z,6.60
2022-12-07T05:55:53.304Z,7.20
2022-12-07T06:01:08.723Z,7.80
2022-12-07T06:03:37.180Z,8.70
2022-12-07T06:06:05.834Z,9.50
2022-12-07T06:08:34.324Z,8.80
2022-12-07T06:11:21.233Z,9.00
2022-12-07T06:13:49.767Z,8.50
2022-12-07T06:16:18.271Z,9.10
2022-12-07T06:18:46.643Z,11.60
2022-12-07T06:21:15.814Z,10.30
2022-12-07T06:23:44.150Z,11.30
2022-12-07T06:26:12.553Z,12.30
2022-12-07T06:28:42.165Z,10.90
2022-12-07T06:31:14.154Z,11.40
2022-12-07T06:33:44.027Z,11.30
2022-12-07T06:36:13.110Z,11.80
2022-12-07T06:38:41.684Z,11.10
2022-12-07T06:41:10.064Z,12.10
2022-12-07T06:43:38.479Z,12.60
2022-12-07T06:46:07.424Z,12.40
2022-12-07T06:48:35.869Z,10.40
2022-12-07T06:51:04.555Z,11.30
2022-12-07T06:53:40.070Z,10.50
2022-12-07T06:56:09.059Z,10.10
2022-12-07T06:58:38.150Z,9.20
2022-12-07T07:01:14.296Z,10.00
2022-12-07T07:03:43.486Z,9.90
2022-12-07T07:06:12.364Z,9.70
2022-12-07T07:08:41.772Z,10.50
2022-12-07T07:11:11.584Z,10.20
2022-12-07T07:13:40.301Z,9.60
2022-12-07T07:16:09.354Z,10.80
2022-12-07T07:18:38.325Z,9.80
2022-12-07T07:21:06.750Z,10.70
2022-12-07T07:23:35.433Z,10.40
2022-12-07T07:26:03.928Z,10.40
2022-12-07T07:28:32.616Z,9.70
2022-12-07T07:31:01.573Z,9.80
2022-12-07T07:33:29.962Z,9.50
2022-12-07T07:35:58.408Z,10.00
2022-12-07T07:38:26.731Z,11.70
2022-12-07T07:40:55.182Z,10.50
2022-12-07T07:43:23.627Z,10.90
2022-12-07T07:45:52.228Z,11.50
2022-12-07T07:48:20.629Z,10.40
2022-12-07T07:50:48.981Z,10.10
2022-12-07T07:53:17.390Z,10.20
2022-12-07T07:55:53.792Z,11.20
2022-12-07T07:58:22.958Z,13.60
2022-12-07T08:00:51.461Z,11.40
2022-12-07T08:03:22.647Z,10.10
2022-12-07T08:05:52.409Z,9.20
2022-12-07T08:08:20.979Z,9.60
2022-12-07T08:10:49.307Z,9.70
2022-12-07T08:13:18.343Z,7.70
2022-12-07T08:15:49.353Z,7.90
2022-12-07T08:18:17.756Z,7.20
2022-12-07T08:20:46.279Z,8.20
2022-12-07T08:23:14.675Z,7.50
2022-12-07T08:25:43.153Z,7.10
2022-12-07T08:28:11.742Z,6.90
2022-12-07T08:30:40.402Z,6.50
2022-12-07T08:33:08.886Z,7.30
2022-12-07T08:35:37.675Z,6.80
2022-12-07T08:38:06.145Z,5.80
2022-12-07T08:40:34.600Z,6.20
2022-12-07T08:43:03.076Z,5.80
2022-12-07T08:45:36.762Z,6.20
2022-12-07T08:48:13.263Z,5.40
2022-12-07T08:50:47.599Z,5.30
2022-12-07T08:53:18.537Z,5.90
2022-12-07T08:55:50.023Z,6.20
2022-12-07T08:58:18.512Z,5.80
2022-12-07T09:00:46.978Z,6.10
2022-12-07T09:03:15.541Z,7.40
2022-12-07T09:05:44.163Z,6.10
2022-12-07T09:08:12.939Z,7.30
2022-12-07T09:10:41.369Z,7.50
2022-12-07T09:13:09.737Z,7.40
2022-12-07T09:15:38.138Z,7.00
2022-12-07T09:18:06.829Z,8.70
2022-12-07T09:20:35.253Z,8.70
2022-12-07T09:23:03.909Z,8.80
2022-12-07T09:25:32.536Z,9.10
2022-12-07T09:28:01.653Z,9.20
2022-12-07T09:30:30.219Z,9.10
2022-12-07T09:32:59.326Z,9.20
2022-12-07T09:35:27.846Z,9.00
2022-12-07T09:37:56.264Z,9.00
2022-12-07T09:40:26.529Z,8.10
2022-12-07T09:42:57.383Z,8.30
2022-12-07T09:45:32.904Z,8.40
2022-12-07T09:48:01.658Z,8.20
2022-12-07T09:50:31.373Z,9.20
2022-12-07T09:53:13.759Z,9.10
2022-12-07T09:55:45.076Z,9.50
2022-12-07T09:58:27.637Z,8.60
2022-12-07T10:01:18.117Z,10.40
2022-12-07T10:03:57.049Z,9.60
2022-12-07T10:06:25.505Z,10.40
2022-12-07T10:08:53.862Z,10.50
2022-12-07T10:11:22.513Z,10.90
2022-12-07T10:13:56.252Z,9.60
2022-12-07T10:16:40.737Z,10.50
2022-12-07T10:19:27.963Z,10.60
2022-12-07T10:22:15.539Z,10.20
2022-12-07T10:24:47.671Z,10.00
2022-12-07T10:27:22.874Z,12.50
2022-12-07T10:29:53.622Z,10.20
2022-12-07T10:32:21.920Z,11.30
2022-12-07T10:34:52.324Z,11.20
2022-12-07T10:37:30.308Z,11.70
2022-12-07T10:39:59.029Z,11.10
2022-12-07T10:42:33.718Z,11.20
2022-12-07T10:45:19.525Z,12.70
2022-12-07T10:48:03.045Z,12.40
2022-12-07T10:51:09.082Z,13.50
2022-12-07T10:53:52.770Z,11.70
2022-12-07T10:56:41.754Z,11.70
2022-12-07T10:59:26.294Z,13.50
2022-12-07T11:05:02.298Z,11.50
2022-12-07T11:07:53.642Z,12.30
2022-12-07T11:10:41.064Z,10.90
2022-12-07T11:16:21.531Z,10.20
2022-12-07T11:19:05.616Z,11.50
2022-12-07T11:21:49.645Z,12.20
2022-12-07T11:24:21.334Z,12.10
2022-12-07T11:27:06.919Z,12.60
2022-12-07T11:29:50.374Z,11.40
2022-12-07T11:32:39.437Z,7.40
2022-12-07T11:35:26.366Z,12.00
2022-12-07T11:38:03.159Z,11.50
2022-12-07T11:40:40.907Z,11.90
2022-12-07T11:43:23.011Z,11.40
2022-12-07T11:46:13.833Z,12.20
2022-12-07T11:49:12.808Z,11.80
2022-12-07T11:51:44.502Z,11.20
2022-12-07T11:54:26.640Z,12.90
2022-12-07T11:56:57.947Z,12.70
2022-12-07T11:59:37.923Z,12.20
2022-12-07T12:02:28.223Z,13.50
2022-12-07T12:05:20.138Z,12.10
2022-12-07T12:11:02.866Z,12.00
2022-12-07T12:17:17.358Z,10.80
2022-12-07T12:20:06.517Z,12.40
2022-12-07T12:22:43.474Z,11.90
2022-12-07T12:25:20.245Z,11.80
2022-12-07T12:27:51.890Z,12.40
2022-12-07T12:30:35.899Z,11.90
2022-12-07T12:33:37.023Z,13.20
2022-12-07T12:36:17.573Z,12.90
2022-12-07T12:39:00.329Z,13.40
2022-12-07T12:41:58.497Z,13.30
2022-12-07T12:44:30.006Z,13.30
2022-12-07T12:47:00.407Z,14.90
2022-12-07T12:49:44.324Z,13.30
2022-12-07T12:52:15.790Z,13.40
2022-12-07T12:55:13.682Z,14.60
2022-12-07T12:57:42.218Z,14.10
2022-12-07T13:00:18.503Z,12.80
2022-12-07T13:02:53.467Z,13.20
2022-12-07T13:05:28.999Z,13.00
2022-12-07T13:08:01.770Z,12.70
2022-12-07T13:10:37.387Z,14.10
2022-12-07T13:13:25.911Z,13.00
2022-12-07T13:16:07.915Z,12.50
2022-12-07T13:18:40.222Z,12.50
2022-12-07T13:21:08.609Z,12.80
2022-12-07T13:23:46.216Z,12.50
2022-12-07T13:26:22.355Z,11.30
2022-12-07T13:29:11.091Z,11.40
2022-12-07T13:31:54.425Z,11.50
2022-12-07T13:34:43.226Z,7.80
2022-12-07T13:37:38.204Z,9.70
2022-12-07T13:40:21.370Z,10.20
2022-12-07T13:42:58.358Z,9.80
2022-12-07T13:45:58.987Z,9.20
2022-12-07T13:48:52.277Z,11.20
2022-12-07T13:51:37.070Z,9.90
2022-12-07T13:54:12.924Z,9.60
2022-12-07T13:56:45.126Z,9.30
2022-12-07T13:59:18.656Z,7.50
2022-12-07T14:01:49.605Z,6.90
2022-12-07T14:04:38.673Z,7.50
2022-12-07T14:07:23.713Z,7.30
2022-12-07T14:10:03.855Z,7.10
2022-12-07T14:12:33.586Z,6.50
2022-12-07T14:15:03.750Z,6.80
2022-12-07T14:17:32.446Z,6.00
2022-12-07T14:20:03.551Z,6.10
2022-12-07T14:22:33.835Z,5.90
2022-12-07T14:25:13.607Z,5.70
2022-12-07T14:27:59.627Z,5.40
2022-12-07T14:30:31.256Z,5.40
2022-12-07T14:33:05.917Z,6.40
2022-12-07T14:35:34.865Z,9.50
2022-12-07T14:38:03.459Z,4.20
2022-12-07T14:40:32.807Z,4.90
2022-12-07T14:43:12.943Z,4.30
2022-12-07T14:45:42.027Z,4.80
2022-12-07T14:53:57.282Z,4.90
2022-12-07T14:56:26.754Z,4.10
2022-12-07T14:58:55.352Z,4.50
2022-12-07T15:01:23.682Z,5.00
2022-12-07T15:03:52.352Z,5.60
2022-12-07T15:06:20.844Z,4.20
2022-12-07T15:08:49.272Z,5.30
2022-12-07T15:11:19.479Z,5.60
2022-12-07T15:14:20.507Z,6.60
2022-12-07T15:19:37.408Z,7.00
2022-12-07T15:22:06.002Z,5.90
2022-12-07T15:24:34.988Z,5.30
2022-12-07T15:27:03.660Z,6.30
2022-12-07T15:29:32.073Z,5.40
2022-12-07T15:32:00.901Z,5.00
2022-12-07T15:34:36.497Z,5.00
2022-12-07T15:37:09.189Z,5.20
2022-12-07T15:39:38.559Z,5.60
2022-12-07T15:42:06.833Z,5.40
2022-12-07T15:44:53.680Z,6.00
2022-12-07T15:47:22.160Z,5.80
2022-12-07T15:49:51.191Z,5.50
2022-12-07T15:52:20.818Z,7.00
2022-12-07T15:54:58.873Z,7.10
2022-12-07T15:57:28.619Z,6.60
2022-12-07T15:59:57.681Z,6.90
2022-12-07T16:02:27.662Z,7.90
2022-12-07T16:04:56.205Z,8.00
2022-12-07T16:07:24.704Z,8.10
2022-12-07T16:09:53.083Z,8.20
2022-12-07T16:12:22.178Z,7.70
2022-12-07T16:14:50.988Z,7.40
2022-12-07T16:17:19.757Z,7.00
2022-12-07T16:19:49.893Z,7.80
2022-12-07T16:22:18.277Z,6.90
2022-12-07T16:24:46.830Z,17.90
2022-12-07T16:27:15.246Z,7.40
2022-12-07T16:29:43.976Z,7.20
2022-12-07T16:32:12.444Z,9.00
2022-12-07T16:34:41.456Z,7.10
2022-12-07T16:37:10.129Z,6.70
2022-12-07T16:39:39.060Z,6.60
2022-12-07T16:42:07.956Z,7.10
2022-12-07T16:44:36.428Z,7.90
2022-12-07T16:47:05.100Z,7.40
2022-12-07T16:49:33.953Z,6.40
2022-12-07T16:52:19.249Z,6.10
2022-12-07T16:54:53.093Z,5.80
2022-12-07T16:57:23.900Z,4.50
2022-12-07T16:59:53.917Z,5.60
2022-12-07T17:02:22.573Z,5.30
2022-12-07T17:04:52.128Z,5.20
2022-12-07T17:07:20.641Z,6.20
2022-12-07T17:09:49.047Z,6.20
2022-12-07T17:12:19.366Z,6.00
2022-12-07T17:15:06.739Z,6.80
2022-12-07T17:17:35.875Z,6.70
2022-12-07T17:20:05.317Z,6.50
2022-12-07T17:22:34.365Z,7.10
2022-12-07T17:25:05.020Z,7.00
2022-12-07T17:27:34.320Z,8.10
2022-12-07T17:30:05.427Z,7.40
2022-12-07T17:32:34.356Z,8.40
2022-12-07T17:35:03.636Z,9.30
2022-12-07T17:37:34.492Z,9.00
2022-12-07T17:40:03.028Z,9.90
2022-12-07T17:42:38.107Z,10.90
2022-12-07T17:45:11.393Z,12.40
2022-12-07T17:47:42.037Z,11.90
2022-12-07T17:50:11.617Z,9.90
2022-12-07T17:52:59.659Z,11.20
2022-12-07T17:56:26.892Z,11.40
2022-12-07T17:58:43.610Z,11.00
2022-12-07T18:01:12.188Z,10.00
2022-12-07T18:03:41.539Z,7.10
2022-12-07T18:06:10.168Z,6.10
2022-12-07T18:08:39.248Z,5.80
2022-12-07T18:11:07.910Z,5.90
2022-12-07T18:13:38.945Z,5.90
2022-12-07T18:16:15.186Z,8.10
2022-12-07T18:18:54.019Z,9.00
2022-12-07T18:21:26.532Z,9.60
2022-12-07T18:23:59.292Z,9.70
2022-12-07T18:26:36.588Z,9.10
2022-12-07T18:29:12.835Z,9.40
2022-12-07T18:31:45.860Z,9.60
2022-12-07T18:34:17.797Z,11.70
2022-12-07T18:36:52.432Z,9.60
2022-12-07T18:39:21.738Z,9.50
2022-12-07T18:41:52.031Z,10.10
2022-12-07T18:44:21.041Z,10.50
2022-12-07T18:46:51.149Z,10.70
2022-12-07T18:49:22.080Z,9.40
2022-12-07T18:51:51.564Z,8.80
2022-12-07T18:54:27.172Z,9.50
2022-12-07T18:56:57.301Z,9.70
2022-12-07T18:59:46.098Z,10.50
2022-12-07T19:02:15.746Z,9.70
2022-12-07T19:04:46.678Z,9.70
2022-12-07T19:07:16.265Z,9.10
2022-12-07T19:09:46.792Z,9.40
2022-12-07T19:12:16.294Z,10.20
2022-12-07T19:14:46.536Z,10.20
2022-12-07T19:17:16.872Z,10.00
2022-12-07T19:19:49.096Z,8.10
2022-12-07T19:22:23.079Z,9.20
2022-12-07T19:24:54.900Z,9.30
2022-12-07T19:27:28.403Z,8.90
2022-12-07T19:29:58.245Z,9.80
2022-12-07T19:32:31.043Z,9.00
2022-12-07T19:35:03.430Z,9.90
2022-12-07T19:37:34.041Z,9.10
2022-12-07T19:40:03.910Z,8.40
2022-12-07T19:42:36.713Z,8.50
2022-12-07T19:45:07.441Z,8.20
2022-12-07T19:47:37.602Z,10.00
2022-12-07T19:50:15.805Z,9.90
2022-12-07T19:52:45.729Z,9.90
2022-12-07T19:55:41.000Z,8.20
2022-12-07T19:58:10.601Z,7.80
2022-12-07T20:00:40.988Z,8.90
2022-12-07T20:03:16.131Z,9.50
2022-12-07T20:05:47.165Z,10.50
2022-12-07T20:08:20.661Z,10.40
2022-12-07T20:10:53.029Z,9.40
2022-12-07T20:13:29.751Z,8.80
2022-12-07T20:16:19.272Z,9.10
2022-12-07T20:18:57.208Z,11.00
2022-12-07T20:21:27.739Z,8.90
2022-12-07T20:24:00.610Z,8.90
2022-12-07T20:26:32.998Z,8.50
2022-12-07T20:29:10.936Z,9.70
2022-12-07T20:31:50.592Z,9.70
2022-12-07T20:34:23.231Z,8.50
2022-12-07T20:36:54.890Z,9.10
2022-12-07T20:39:25.100Z,8.80
2022-12-07T20:42:15.237Z,8.40
2022-12-07T20:44:48.089Z,8.30
2022-12-07T20:47:18.222Z,6.50
2022-12-07T20:49:52.597Z,8.40
2022-12-07T20:52:22.808Z,9.30
2022-12-07T20:54:51.850Z,8.40
2022-12-07T20:57:21.092Z,7.00
2022-12-07T20:59:50.272Z,7.90
2022-12-07T21:02:19.604Z,6.30
2022-12-07T21:04:49.054Z,6.80
2022-12-07T21:07:19.174Z,7.60
2022-12-07T21:09:52.031Z,6.70
2022-12-07T21:12:21.038Z,6.60
2022-12-07T21:14:50.165Z,6.40
2022-12-07T21:17:19.211Z,7.80
2022-12-07T21:19:47.999Z,6.50
2022-12-07T21:22:16.500Z,8.40
2022-12-07T21:24:45.283Z,8.00
2022-12-07T21:27:13.753Z,6.40
2022-12-07T21:29:45.118Z,6.00
2022-12-07T21:32:15.087Z,6.70
2022-12-07T21:34:44.238Z,5.90
2022-12-07T21:37:13.061Z,6.40
2022-12-07T21:39:41.582Z,6.30
2022-12-07T21:42:10.075Z,5.80
2022-12-07T21:44:38.531Z,5.40
2022-12-07T21:47:07.299Z,5.70
2022-12-07T21:49:36.703Z,5.90
2022-12-07T21:52:05.967Z,5.50
2022-12-07T21:54:34.783Z,5.40
2022-12-07T21:57:03.999Z,5.80
2022-12-07T21:59:32.649Z,5.70
2022-12-07T22:02:01.282Z,5.20
2022-12-07T22:04:29.861Z,6.90
2022-12-07T22:06:59.513Z,4.80
2022-12-07T22:09:30.694Z,5.20
2022-12-07T22:11:59.953Z,5.40
2022-12-07T22:14:47.334Z,5.20
2022-12-07T22:17:15.832Z,4.30
2022-12-07T22:19:44.218Z,3.70
2022-12-07T22:22:16.606Z,4.00
2022-12-07T22:24:45.074Z,3.80
2022-12-07T22:27:13.459Z,4.00
2022-12-07T22:29:42.134Z,4.50
2022-12-07T22:32:39.939Z,4.10
2022-12-07T22:34:59.404Z,3.60
2022-12-07T22:37:29.849Z,3.30
2022-12-07T22:39:58.735Z,3.50
2022-12-07T22:42:27.742Z,3.80
2022-12-07T22:44:56.733Z,4.40
2022-12-07T22:47:25.301Z,3.60
2022-12-07T22:49:53.910Z,3.90
2022-12-07T22:52:23.032Z,3.30
2022-12-07T22:54:52.205Z,3.30
2022-12-07T22:57:20.822Z,4.20
2022-12-07T22:59:49.488Z,3.40
2022-12-07T23:02:18.104Z,3.20
2022-12-07T23:04:46.680Z,3.50
2022-12-07T23:07:15.299Z,3.60
2022-12-07T23:09:44.058Z,3.40
2022-12-07T23:12:31.090Z,3.30
2022-12-07T23:14:59.498Z,3.40
2022-12-07T23:17:28.377Z,3.40
2022-12-07T23:19:57.396Z,3.00
2022-12-07T23:22:25.937Z,3.40
2022-12-07T23:24:54.473Z,4.00
2022-12-07T23:27:23.794Z,4.80
2022-12-07T23:29:52.386Z,4.10
2022-12-07T23:32:20.784Z,4.30
2022-12-07T23:34:49.229Z,4.00
2022-12-07T23:37:18.299Z,3.50
2022-12-07T23:39:46.637Z,4.10
2022-12-07T23:42:15.043Z,4.70
2022-12-07T23:44:43.489Z,4.00
2022-12-07T23:47:11.999Z,5.00
2022-12-07T23:49:40.415Z,3.70
2022-12-07T23:52:08.935Z,3.70
2022-12-07T23:54:43.651Z,5.30
2022-12-07T23:57:12.158Z,3.90
2022-12-07T23:59:40.480Z,3.70
